Time;durP1;ratioP1;P1;durP2;ratioP2;P2;SDS_P1;SDS_P2;PMS_P1;PMS_P2;Temp;Humidity;BMP_temperature;BMP_pressure;BME280_temperature;BME280_humidity;BME280_pressure;Samples;Min_cycle;Max_cycle;Signal;HPM_P1;HPM_P2
2022/05/10 00:00:55;;;;;;;13.90;8.70;;;16.00;99.90;;;;;;5095569;28;20026;-59
2022/05/10 00:03:23;;;;;;;13.85;8.60;;;16.10;99.90;;;;;;5095151;28;20020;-59
2022/05/10 00:05:49;;;;;;;13.52;10.38;;;16.20;99.90;;;;;;5095367;28;20036;-59
2022/05/10 00:08:17;;;;;;;12.63;8.50;;;16.10;99.90;;;;;;5095147;28;20386;-58
2022/05/10 00:10:45;;;;;;;12.52;8.10;;;16.00;99.90;;;;;;5095121;28;20027;-59
2022/05/10 00:13:12;;;;;;;11.05;7.90;;;16.00;99.90;;;;;;5095280;28;20024;-59
2022/05/10 00:15:40;;;;;;;8.70;6.72;;;16.00;99.90;;;;;;5095038;28;20028;-59
2022/05/10 00:18:06;;;;;;;12.10;7.95;;;16.10;99.90;;;;;;5095141;28;20070;-59
2022/05/10 00:20:32;;;;;;;10.07;6.95;;;16.10;99.90;;;;;;5095076;28;20020;-59
2022/05/10 00:22:58;;;;;;;12.68;8.57;;;16.10;99.90;;;;;;5095028;28;20020;-58
2022/05/10 00:25:28;;;;;;;14.32;8.90;;;16.10;99.90;;;;;;5094641;28;20509;-58
2022/05/10 00:27:54;;;;;;;18.20;11.15;;;16.00;99.90;;;;;;5094697;28;20024;-58
2022/05/10 00:30:21;;;;;;;12.82;8.60;;;15.80;99.90;;;;;;5095037;28;20114;-58
2022/05/10 00:32:48;;;;;;;15.02;10.02;;;15.60;99.90;;;;;;5094547;28;20059;-59
2022/05/10 00:35:18;;;;;;;18.83;11.35;;;15.60;99.90;;;;;;5094619;28;20047;-59
2022/05/10 00:37:46;;;;;;;15.23;10.63;;;15.40;99.90;;;;;;5094876;28;20053;-59
2022/05/10 00:40:14;;;;;;;11.65;8.65;;;15.20;99.90;;;;;;5094582;28;20028;-59
2022/05/10 00:43:04;;;;;;;15.65;9.20;;;15.30;99.90;;;;;;5094486;28;20099;-58
2022/05/10 00:45:42;;;;;;;14.57;10.15;;;15.40;99.90;;;;;;5094381;28;20505;-59
2022/05/10 00:48:49;;;;;;;12.73;8.73;;;15.40;99.90;;;;;;5094597;28;20020;-58
2022/05/10 00:51:36;;;;;;;9.15;7.20;;;15.40;99.90;;;;;;5084075;28;20485;-59
2022/05/10 00:54:24;;;;;;;12.27;8.85;;;15.40;99.90;;;;;;5076145;28;20035;-59
2022/05/10 00:56:57;;;;;;;12.60;9.38;;;15.50;99.90;;;;;;5093398;28;20072;-58
2022/05/10 00:59:34;;;;;;;15.23;9.63;;;15.50;99.90;;;;;;5094155;28;20026;-59
2022/05/10 01:02:06;;;;;;;11.30;8.60;;;15.40;99.90;;;;;;5094022;28;20016;-58
2022/05/10 01:04:43;;;;;;;12.53;8.93;;;15.30;99.90;;;;;;5093948;28;20020;-59
2022/05/10 01:07:16;;;;;;;10.95;8.20;;;15.20;99.90;;;;;;5094072;28;20027;-58
2022/05/10 01:09:45;;;;;;;13.60;9.50;;;15.10;99.90;;;;;;5094252;28;20028;-59
2022/05/10 01:12:42;;;;;;;14.27;9.82;;;15.20;99.90;;;;;;5093960;28;20073;-58
2022/05/10 01:15:17;;;;;;;11.05;8.05;;;15.10;99.90;;;;;;5093749;28;20112;-58
2022/05/10 01:17:45;;;;;;;10.10;7.00;;;15.10;99.90;;;;;;5094025;28;20487;-58
2022/05/10 01:20:25;;;;;;;11.52;7.72;;;15.20;99.90;;;;;;5094014;28;20460;-59
2022/05/10 01:23:06;;;;;;;15.00;10.07;;;15.20;99.90;;;;;;5094096;28;20102;-58
2022/05/10 01:26:05;;;;;;;22.48;14.38;;;15.30;99.90;;;;;;5093757;28;20058;-59
2022/05/10 01:29:06;;;;;;;20.42;12.27;;;15.10;99.90;;;;;;5093739;28;20020;-59
2022/05/10 01:31:42;;;;;;;19.95;12.52;;;15.00;99.90;;;;;;4992126;28;20022;-58
2022/05/10 01:34:20;;;;;;;14.43;10.50;;;15.00;99.90;;;;;;5079527;28;20028;-58
2022/05/10 01:36:52;;;;;;;12.07;8.55;;;14.90;99.90;;;;;;5093724;28;20101;-59
2022/05/10 01:39:30;;;;;;;10.20;7.70;;;14.70;99.90;;;;;;5093786;28;20027;-58
2022/05/10 01:42:02;;;;;;;10.32;7.70;;;14.70;99.90;;;;;;5093578;28;20459;-59
2022/05/10 01:44:42;;;;;;;10.63;7.32;;;14.80;99.90;;;;;;5093311;28;20486;-58
2022/05/10 01:47:35;;;;;;;9.23;7.45;;;14.80;99.90;;;;;;5093605;28;20031;-58
2022/05/10 01:50:18;;;;;;;9.73;7.40;;;14.80;99.90;;;;;;5093386;28;20479;-58
2022/05/10 01:53:04;;;;;;;10.35;7.15;;;14.80;99.90;;;;;;5093427;28;20028;-58
2022/05/10 01:55:51;;;;;;;7.25;5.85;;;14.80;99.90;;;;;;5093315;28;20081;-59
2022/05/10 01:58:26;;;;;;;8.15;5.75;;;14.80;99.90;;;;;;5093286;28;20475;-58
2022/05/10 02:01:03;;;;;;;7.88;5.75;;;14.80;99.90;;;;;;5093075;28;20020;-59
2022/05/10 02:03:34;;;;;;;8.98;6.38;;;14.80;99.90;;;;;;5093381;28;20081;-58
2022/05/10 02:06:11;;;;;;;6.43;4.82;;;14.70;99.90;;;;;;5093209;28;20532;-59
2022/05/10 02:09:00;;;;;;;7.47;4.30;;;14.70;99.90;;;;;;5093350;28;20020;-58
2022/05/10 02:11:27;;;;;;;6.65;4.45;;;14.70;99.90;;;;;;5093361;28;20390;-58
2022/05/10 02:14:11;;;;;;;7.28;5.78;;;14.80;99.90;;;;;;5093089;28;20026;-58
2022/05/10 02:16:46;;;;;;;6.68;5.10;;;14.70;99.90;;;;;;5093251;28;20050;-59
2022/05/10 02:19:33;;;;;;;6.05;5.28;;;14.60;99.90;;;;;;5093206;28;20028;-58
2022/05/10 02:22:05;;;;;;;6.35;5.05;;;14.50;99.90;;;;;;5093446;28;20489;-59
2022/05/10 02:24:58;;;;;;;7.50;5.47;;;14.40;99.90;;;;;;5093064;28;20031;-59
2022/05/10 02:27:37;;;;;;;6.88;5.78;;;14.40;99.90;;;;;;5092897;28;20065;-58
2022/05/10 02:30:05;;;;;;;8.02;5.38;;;14.40;99.90;;;;;;5093026;28;20117;-59
2022/05/10 02:35:24;;;;;;;;;;;14.30;99.90;;;;;;5093906;28;20508;-58
2022/05/10 02:37:50;;;;;;;6.85;4.85;;;14.40;99.90;;;;;;5092990;28;19904;-58
2022/05/10 02:40:16;;;;;;;4.80;4.03;;;14.40;99.90;;;;;;5096141;28;20061;-58
2022/05/10 02:42:47;;;;;;;4.85;4.40;;;14.40;99.90;;;;;;5096664;28;20024;-59
2022/05/10 02:45:18;;;;;;;5.60;4.00;;;14.50;99.90;;;;;;5078980;28;20028;-59
2022/05/10 02:47:44;;;;;;;6.10;5.00;;;14.50;99.90;;;;;;5096624;28;20056;-58
2022/05/10 02:50:29;;;;;;;7.40;4.95;;;14.50;99.90;;;;;;5097015;28;20363;-59
2022/05/10 02:52:55;;;;;;;5.57;4.80;;;14.40;99.90;;;;;;5096684;28;20026;-58
2022/05/10 02:55:45;;;;;;;6.20;4.47;;;14.40;99.90;;;;;;5096865;28;20020;-59
2022/05/10 02:58:31;;;;;;;5.53;4.50;;;14.40;99.90;;;;;;5096661;28;20409;-59
2022/05/10 03:01:16;;;;;;;5.07;4.45;;;14.30;99.90;;;;;;5096279;28;20060;-59
2022/05/10 03:03:42;;;;;;;8.10;5.00;;;14.30;99.90;;;;;;5095962;28;20024;-58
2022/05/10 03:06:08;;;;;;;6.68;5.00;;;14.30;99.90;;;;;;5096501;28;20031;-58
2022/05/10 03:08:33;;;;;;;6.60;5.20;;;14.30;99.90;;;;;;5096480;28;20020;-58
2022/05/10 03:10:59;;;;;;;4.55;3.95;;;14.20;99.90;;;;;;5096354;28;20035;-58
2022/05/10 03:13:26;;;;;;;4.50;3.85;;;14.10;99.90;;;;;;5096265;28;20028;-58
2022/05/10 03:15:51;;;;;;;6.63;4.97;;;14.10;99.90;;;;;;5096521;28;20108;-58
2022/05/10 03:18:17;;;;;;;5.88;4.68;;;14.10;99.90;;;;;;5096161;28;20048;-59
2022/05/10 03:20:43;;;;;;;5.53;4.13;;;14.00;99.90;;;;;;5096800;28;20024;-59
2022/05/10 03:23:09;;;;;;;6.18;4.22;;;13.90;99.90;;;;;;5096046;28;20463;-58
2022/05/10 03:25:35;;;;;;;6.10;4.75;;;13.90;99.90;;;;;;5095725;28;20031;-58
2022/05/10 03:28:02;;;;;;;6.18;4.20;;;14.00;99.90;;;;;;5095986;28;20071;-57
2022/05/10 03:30:28;;;;;;;7.15;4.85;;;14.00;99.90;;;;;;5096267;28;20027;-59
2022/05/10 03:32:54;;;;;;;6.28;4.55;;;14.00;99.90;;;;;;5096185;28;20165;-58
2022/05/10 03:35:21;;;;;;;6.13;4.88;;;13.90;99.90;;;;;;5095781;28;20537;-59
2022/05/10 03:37:47;;;;;;;5.93;4.10;;;13.80;99.90;;;;;;5096115;28;20016;-59
2022/05/10 03:40:13;;;;;;;5.43;4.25;;;13.80;99.90;;;;;;5095932;28;20378;-59
2022/05/10 03:42:44;;;;;;;5.78;4.95;;;13.80;99.90;;;;;;5095612;28;20441;-59
2022/05/10 03:45:11;;;;;;;6.35;4.53;;;13.80;99.90;;;;;;5095887;28;20165;-58
2022/05/10 03:47:37;;;;;;;3.75;3.45;;;13.80;99.90;;;;;;5095913;28;20444;-58
2022/05/10 03:50:04;;;;;;;4.15;3.72;;;13.80;99.90;;;;;;5095108;28;20024;-59
2022/05/10 03:52:30;;;;;;;5.05;3.60;;;13.90;99.90;;;;;;5095577;28;20024;-58
2022/05/10 03:54:55;;;;;;;4.18;3.15;;;14.00;99.90;;;;;;5095453;28;20463;-59
2022/05/10 03:57:21;;;;;;;4.15;3.45;;;14.10;99.90;;;;;;5095167;28;20054;-58
2022/05/10 03:59:47;;;;;;;4.10;3.22;;;14.20;99.90;;;;;;5095436;28;20039;-58
2022/05/10 04:02:14;;;;;;;3.88;2.80;;;14.20;99.90;;;;;;5095238;28;20526;-58
2022/05/10 04:04:40;;;;;;;2.78;2.58;;;14.20;99.90;;;;;;5095183;28;20035;-59
2022/05/10 04:07:07;;;;;;;3.90;3.50;;;14.20;99.90;;;;;;5095556;28;20122;-58
2022/05/10 04:09:33;;;;;;;3.50;3.20;;;14.30;99.90;;;;;;5094982;28;20055;-58
2022/05/10 04:11:59;;;;;;;4.07;3.67;;;14.30;99.90;;;;;;5095037;28;20509;-59
2022/05/10 04:14:25;;;;;;;6.72;5.43;;;14.30;99.90;;;;;;5095341;28;20032;-59
2022/05/10 04:16:51;;;;;;;4.63;4.00;;;14.20;99.90;;;;;;5095178;28;20068;-58
2022/05/10 04:19:17;;;;;;;4.38;3.85;;;14.10;99.90;;;;;;5094852;28;20095;-58
2022/05/10 04:21:43;;;;;;;5.25;3.80;;;14.20;99.90;;;;;;5095008;28;20409;-59
2022/05/10 04:24:09;;;;;;;5.30;3.72;;;14.30;99.90;;;;;;5094775;28;20032;-58
2022/05/10 04:26:34;;;;;;;6.03;3.80;;;14.30;99.90;;;;;;5094911;28;20020;-58
2022/05/10 04:29:00;;;;;;;5.15;4.35;;;14.40;99.90;;;;;;5095083;28;20024;-58
2022/05/10 04:31:26;;;;;;;5.57;4.30;;;14.50;99.90;;;;;;5095173;28;20016;-59
2022/05/10 04:33:52;;;;;;;5.80;4.50;;;14.60;99.90;;;;;;5094987;28;20089;-58
2022/05/10 04:36:22;;;;;;;9.98;6.05;;;14.60;99.90;;;;;;5094835;28;20077;-58
2022/05/10 04:38:49;;;;;;;6.07;5.03;;;14.60;99.90;;;;;;5094713;28;20024;-58
2022/05/10 04:41:25;;;;;;;8.80;5.57;;;14.60;99.90;;;;;;5094872;28;20016;-58
2022/05/10 04:43:52;;;;;;;8.63;6.25;;;14.60;99.90;;;;;;5094441;28;20032;-59
2022/05/10 04:46:18;;;;;;;7.38;5.45;;;14.50;99.90;;;;;;5094807;28;20020;-59
2022/05/10 04:48:44;;;;;;;6.32;5.13;;;14.60;99.90;;;;;;5094590;28;20020;-58
2022/05/10 04:51:09;;;;;;;8.32;5.45;;;14.70;99.90;;;;;;5094433;28;20024;-59
2022/05/10 04:53:35;;;;;;;6.82;5.18;;;14.80;99.90;;;;;;5094386;28;20032;-58
2022/05/10 04:56:03;;;;;;;5.38;4.80;;;14.90;99.90;;;;;;5094379;28;20043;-58
2022/05/10 04:58:29;;;;;;;5.68;5.10;;;15.00;99.90;;;;;;5094227;28;20027;-58
2022/05/10 05:01:02;;;;;;;6.30;4.82;;;15.10;99.90;;;;;;5093760;28;20046;-58
2022/05/10 05:03:27;;;;;;;10.37;5.77;;;15.20;99.90;;;;;;5093949;28;20032;-58
2022/05/10 05:05:53;;;;;;;14.98;7.10;;;15.30;99.90;;;;;;5094089;28;20032;-58
2022/05/10 05:08:19;;;;;;;10.35;6.85;;;15.30;99.90;;;;;;5094063;28;20064;-58
2022/05/10 05:10:44;;;;;;;9.68;7.15;;;15.30;99.90;;;;;;5094293;28;20031;-58
2022/05/10 05:13:10;;;;;;;10.50;7.50;;;15.40;99.90;;;;;;5093956;28;20371;-58
2022/05/10 05:15:36;;;;;;;7.10;5.90;;;15.50;99.90;;;;;;5094102;28;20030;-59
2022/05/10 05:18:03;;;;;;;8.73;5.90;;;15.60;99.90;;;;;;5094015;28;20394;-59
2022/05/10 05:20:31;;;;;;;8.68;6.88;;;15.70;99.90;;;;;;5093736;28;20031;-59
2022/05/10 05:22:56;;;;;;;10.48;7.35;;;15.80;99.90;;;;;;5092165;28;20089;-59
2022/05/10 05:25:22;;;;;;;6.90;5.65;;;15.80;99.90;;;;;;5093801;28;20066;-58
2022/05/10 05:27:48;;;;;;;7.85;5.78;;;15.80;99.90;;;;;;5093427;28;20500;-59
2022/05/10 05:30:14;;;;;;;6.47;5.50;;;16.00;99.90;;;;;;5093698;28;20016;-58
2022/05/10 05:32:40;;;;;;;5.80;5.20;;;16.10;99.90;;;;;;5093743;28;20020;-59
2022/05/10 05:35:07;;;;;;;6.35;5.28;;;16.20;99.90;;;;;;5093620;28;20081;-58
2022/05/10 05:37:33;;;;;;;6.07;5.32;;;16.20;99.90;;;;;;5093389;28;20020;-58
2022/05/10 05:40:04;;;;;;;5.97;5.13;;;16.40;99.90;;;;;;5093553;28;20115;-59
2022/05/10 05:42:30;;;;;;;6.93;5.50;;;16.40;99.90;;;;;;5093718;28;20420;-58
2022/05/10 05:44:56;;;;;;;5.85;5.20;;;16.60;99.90;;;;;;5093462;28;20390;-58
2022/05/10 05:47:22;;;;;;;5.80;4.55;;;16.70;99.90;;;;;;5093573;28;20077;-58
2022/05/10 05:49:48;;;;;;;6.38;5.05;;;16.80;99.90;;;;;;5093262;28;20085;-58
2022/05/10 05:52:17;;;;;;;9.05;6.25;;;16.90;99.90;;;;;;5093329;28;20016;-58
2022/05/10 05:54:44;;;;;;;6.97;5.13;;;17.00;99.90;;;;;;5093723;28;20035;-59
2022/05/10 05:57:10;;;;;;;6.90;4.88;;;17.00;99.90;;;;;;5093221;28;20056;-58
2022/05/10 05:59:36;;;;;;;5.32;4.60;;;17.20;99.90;;;;;;5093640;28;20043;-58
2022/05/10 06:02:02;;;;;;;5.30;4.65;;;17.30;99.90;;;;;;5093184;28;20465;-58
2022/05/10 06:04:27;;;;;;;8.55;4.40;;;17.40;99.90;;;;;;5093274;28;20033;-58
2022/05/10 06:06:53;;;;;;;6.32;4.65;;;17.60;99.90;;;;;;5093308;28;20027;-59
2022/05/10 06:09:25;;;;;;;7.00;5.57;;;17.70;99.90;;;;;;5093284;28;20428;-59
2022/05/10 06:11:51;;;;;;;9.02;6.38;;;17.90;99.90;;;;;;5093232;28;20023;-58
2022/05/10 06:14:17;;;;;;;8.15;6.07;;;18.10;99.90;;;;;;5096591;28;20397;-58
2022/05/10 06:16:43;;;;;;;9.18;6.78;;;18.10;99.90;;;;;;5097377;28;20027;-59
2022/05/10 06:19:13;;;;;;;10.02;6.68;;;18.00;99.90;;;;;;5097439;28;20020;-59
2022/05/10 06:21:41;;;;;;;13.30;7.47;;;18.20;99.90;;;;;;5097264;28;20170;-58
2022/05/10 06:24:07;;;;;;;21.63;7.38;;;18.20;99.90;;;;;;5097062;28;20024;-59
2022/05/10 06:26:33;;;;;;;14.00;8.15;;;18.30;99.90;;;;;;5097143;28;20050;-59
2022/05/10 06:28:58;;;;;;;11.73;7.45;;;18.40;99.90;;;;;;5097140;28;20024;-58
2022/05/10 06:31:24;;;;;;;7.85;6.63;;;18.60;99.90;;;;;;5097235;28;20385;-59
2022/05/10 06:33:50;;;;;;;8.40;6.25;;;18.80;99.90;;;;;;5096845;28;20016;-59
2022/05/10 06:36:16;;;;;;;9.65;6.50;;;19.00;99.90;;;;;;5096937;28;20024;-58
2022/05/10 06:38:41;;;;;;;13.13;7.47;;;19.10;99.40;;;;;;5096984;28;20493;-59
2022/05/10 06:41:07;;;;;;;10.88;8.55;;;19.20;98.80;;;;;;5096881;28;20074;-58
2022/05/10 06:43:38;;;;;;;10.43;6.93;;;19.30;98.60;;;;;;5096681;28;20023;-59
2022/05/10 06:46:12;;;;;;;10.63;6.78;;;19.30;98.80;;;;;;5096613;28;20024;-59
2022/05/10 06:48:39;;;;;;;12.90;7.65;;;19.60;99.10;;;;;;5096674;28;20047;-58
2022/05/10 06:51:09;;;;;;;16.58;10.60;;;19.80;98.90;;;;;;5095902;28;20034;-58
2022/05/10 06:53:36;;;;;;;10.57;8.18;;;19.50;99.20;;;;;;5096295;28;20017;-59
2022/05/10 06:56:04;;;;;;;10.68;7.63;;;19.70;98.30;;;;;;5095722;28;20455;-59
2022/05/10 06:58:31;;;;;;;11.48;8.02;;;20.10;97.50;;;;;;5078182;28;20027;-59
2022/05/10 07:00:56;;;;;;;13.27;7.63;;;20.70;97.20;;;;;;5093375;28;20024;-59
2022/05/10 07:03:32;;;;;;;10.07;7.63;;;22.30;95.50;;;;;;5096208;28;20013;-60
2022/05/10 07:06:01;;;;;;;10.73;7.57;;;24.50;91.20;;;;;;5078035;28;20036;-59
2022/05/10 07:08:26;;;;;;;12.68;7.10;;;25.30;76.90;;;;;;5096551;28;20031;-58
2022/05/10 07:10:52;;;;;;;11.30;7.50;;;25.30;70.80;;;;;;5096159;28;20024;-59
2022/05/10 07:13:21;;;;;;;11.52;7.75;;;25.90;71.20;;;;;;5096305;28;20020;-59
2022/05/10 07:15:47;;;;;;;10.00;6.68;;;27.10;65.60;;;;;;5096379;28;20032;-59
2022/05/10 07:18:14;;;;;;;8.80;7.40;;;27.60;61.50;;;;;;5095484;28;20024;-59
2022/05/10 07:20:40;;;;;;;10.88;6.05;;;27.20;62.40;;;;;;5095638;28;20035;-60
2022/05/10 07:23:07;;;;;;;8.85;7.80;;;26.20;62.40;;;;;;5092641;28;20020;-59
2022/05/10 07:25:33;;;;;;;12.25;9.23;;;25.50;64.20;;;;;;5076421;28;20120;-58
2022/05/10 07:27:59;;;;;;;12.70;9.05;;;25.00;64.80;;;;;;5095336;28;20056;-59
2022/05/10 07:30:27;;;;;;;9.88;8.48;;;24.60;67.40;;;;;;5095639;28;20491;-59
2022/05/10 07:32:53;;;;;;;9.40;8.00;;;24.80;69.10;;;;;;5095702;28;20024;-58
2022/05/10 07:36:23;;;;;;;14.25;11.18;;;25.00;68.60;;;;;;5095927;28;20543;-59
2022/05/10 07:38:09;;;;;;;10.63;9.48;;;24.40;69.40;;;;;;5095792;28;20470;-59
2022/05/10 07:40:34;;;;;;;11.65;10.45;;;23.80;69.40;;;;;;5095918;28;20055;-59
2022/05/10 07:43:00;;;;;;;16.45;13.02;;;23.50;72.10;;;;;;5095587;28;20059;-59
2022/05/10 07:45:26;;;;;;;14.82;12.07;;;23.30;75.10;;;;;;5095625;28;20056;-59
2022/05/10 07:47:52;;;;;;;13.50;11.30;;;23.00;76.40;;;;;;5095265;28;20027;-59
2022/05/10 07:50:17;;;;;;;17.65;13.57;;;22.90;74.20;;;;;;5095813;28;20059;-59
2022/05/10 07:52:46;;;;;;;17.80;15.18;;;22.90;74.40;;;;;;5095738;28;20097;-59
2022/05/10 07:55:13;;;;;;;23.67;17.88;;;22.80;77.90;;;;;;5076865;28;20028;-58
2022/05/10 07:57:40;;;;;;;15.02;13.10;;;22.70;79.80;;;;;;5093817;28;20044;-59
2022/05/10 08:00:08;;;;;;;17.38;12.85;;;22.50;78.40;;;;;;5093500;28;20050;-59
2022/05/10 08:02:35;;;;;;;18.70;14.85;;;22.30;77.90;;;;;;5095031;28;20486;-59
2022/05/10 08:05:02;;;;;;;13.00;11.32;;;22.30;81.20;;;;;;5094043;28;20032;-59
2022/05/10 08:07:28;;;;;;;15.05;12.57;;;22.20;79.70;;;;;;5094076;28;20027;-59
2022/05/10 08:09:54;;;;;;;16.17;13.70;;;22.20;80.80;;;;;;5094994;28;20020;-58
2022/05/10 08:12:20;;;;;;;14.95;11.93;;;22.10;82.90;;;;;;5094936;28;20024;-59
2022/05/10 08:14:46;;;;;;;17.23;13.60;;;22.00;85.80;;;;;;5094661;28;20028;-59
2022/05/10 08:17:12;;;;;;;14.85;12.40;;;22.00;84.70;;;;;;5094503;28;20158;-59
2022/05/10 08:19:38;;;;;;;19.05;13.02;;;22.00;85.70;;;;;;5095069;28;20028;-58
2022/05/10 08:22:03;;;;;;;15.30;12.18;;;22.10;84.10;;;;;;5094586;28;20035;-58
2022/05/10 08:24:29;;;;;;;17.13;13.70;;;22.20;86.50;;;;;;5094439;28;20032;-58
2022/05/10 08:26:55;;;;;;;14.90;11.50;;;22.20;84.90;;;;;;5094951;28;20024;-58
2022/05/10 08:29:20;;;;;;;15.00;11.57;;;22.10;83.80;;;;;;5094838;28;20371;-59
2022/05/10 08:31:47;;;;;;;14.82;10.90;;;22.30;83.90;;;;;;5094677;28;20024;-60
2022/05/10 08:34:12;;;;;;;12.27;9.80;;;22.50;84.90;;;;;;5094659;28;20032;-58
2022/05/10 08:36:38;;;;;;;9.98;8.98;;;22.60;84.60;;;;;;5093728;28;20012;-59
2022/05/10 08:39:04;;;;;;;11.68;8.90;;;22.70;84.40;;;;;;5094929;28;20024;-58
2022/05/10 08:41:47;;;;;;;13.15;9.70;;;23.00;83.60;;;;;;5094528;28;20016;-59
2022/05/10 08:44:19;;;;;;;10.13;8.70;;;23.10;81.80;;;;;;5094783;28;20119;-59
2022/05/10 08:46:49;;;;;;;11.30;7.72;;;23.50;78.70;;;;;;5094224;28;20028;-59
2022/05/10 08:49:34;;;;;;;9.55;7.75;;;24.00;81.40;;;;;;5094567;28;20016;-59
2022/05/10 08:51:59;;;;;;;13.43;7.63;;;24.40;77.30;;;;;;5094363;28;20063;-59
2022/05/10 08:54:29;;;;;;;10.20;7.57;;;24.80;73.60;;;;;;5094353;28;20021;-59
2022/05/10 08:57:02;;;;;;;8.65;7.68;;;25.40;71.60;;;;;;5094215;28;20047;-59
2022/05/10 09:00:04;;;;;;;9.85;7.60;;;26.70;70.00;;;;;;5093874;28;20048;-59
2022/05/10 09:02:51;;;;;;;13.80;7.88;;;28.10;70.30;;;;;;5093345;28;20020;-59
2022/05/10 09:05:20;;;;;;;9.00;6.72;;;28.10;68.30;;;;;;5094057;28;20031;-59
2022/05/10 09:08:03;;;;;;;8.88;5.97;;;28.60;63.80;;;;;;5093992;28;20024;-59
2022/05/10 09:11:01;;;;;;;7.18;5.68;;;29.60;63.00;;;;;;5094041;28;20024;-59
2022/05/10 09:13:28;;;;;;;8.00;5.82;;;28.80;63.30;;;;;;5093856;28;20047;-59
2022/05/10 09:16:08;;;;;;;10.55;6.47;;;28.00;62.10;;;;;;5093276;28;20077;-59
2022/05/10 09:18:39;;;;;;;7.82;6.20;;;27.40;58.20;;;;;;5093104;28;20034;-59
2022/05/10 09:21:16;;;;;;;9.52;7.20;;;26.80;59.30;;;;;;5081226;28;20437;-59
2022/05/10 09:24:20;;;;;;;8.85;6.47;;;26.50;60.00;;;;;;5092076;28;20046;-59
2022/05/10 09:26:50;;;;;;;9.38;6.47;;;26.20;60.90;;;;;;5091405;28;20442;-59
2022/05/10 09:29:19;;;;;;;7.40;6.60;;;25.90;64.00;;;;;;5090825;28;20052;-60
2022/05/10 09:34:47;;;;;;;6.47;5.78;;;25.40;65.10;;;;;;5081748;28;20041;-59
2022/05/10 09:37:35;;;;;;;7.40;6.05;;;25.40;63.00;;;;;;5093177;28;20028;-59
2022/05/10 09:40:07;;;;;;;8.18;6.00;;;25.20;66.00;;;;;;5089649;28;20063;-59
2022/05/10 09:42:39;;;;;;;7.88;5.30;;;24.90;64.80;;;;;;5072621;28;20036;-59
2022/05/10 09:45:18;;;;;;;8.82;5.28;;;24.90;65.60;;;;;;5078559;28;20120;-59
2022/05/10 09:48:07;;;;;;;6.10;5.10;;;24.70;65.20;;;;;;5068489;28;20055;-58
2022/05/10 09:50:36;;;;;;;4.55;4.15;;;24.60;64.70;;;;;;5062407;28;20032;-59
2022/05/10 09:53:25;;;;;;;5.10;3.92;;;24.60;67.40;;;;;;5072082;28;20029;-59
2022/05/10 09:56:05;;;;;;;5.57;4.10;;;24.60;65.20;;;;;;5070656;28;20411;-59
2022/05/10 09:58:34;;;;;;;5.85;3.83;;;24.90;64.70;;;;;;5071116;28;20434;-59
2022/05/10 10:01:04;;;;;;;4.82;3.33;;;25.10;65.00;;;;;;5071036;28;20029;-60
2022/05/10 10:03:39;;;;;;;4.43;3.60;;;25.20;63.70;;;;;;5069511;28;20039;-60
2022/05/10 10:06:24;;;;;;;4.15;3.75;;;25.30;64.90;;;;;;5070783;28;20039;-58
2022/05/10 10:08:55;;;;;;;3.65;3.30;;;25.00;64.90;;;;;;5071390;28;20400;-60
2022/05/10 10:11:26;;;;;;;3.45;3.15;;;25.20;66.00;;;;;;5089893;28;20034;-60
2022/05/10 10:13:53;;;;;;;3.42;2.92;;;25.70;63.90;;;;;;5090123;28;20016;-60
2022/05/10 10:16:26;;;;;;;3.65;3.20;;;26.20;64.70;;;;;;5087668;28;20508;-60
2022/05/10 10:18:54;;;;;;;;;;;27.20;64.20;;;;;;5074899;28;20048;-60
2022/05/10 10:21:55;;;;;;;5.78;3.35;;;27.70;59.50;;;;;;5093059;28;19904;-60
2022/05/10 10:24:51;;;;;;;3.10;2.90;;;27.40;58.20;;;;;;5049412;28;20103;-60
2022/05/10 10:27:32;;;;;;;3.40;2.42;;;27.30;58.10;;;;;;5086945;28;20034;-60
2022/05/10 10:30:04;;;;;;;2.58;2.38;;;28.10;57.70;;;;;;5089480;28;20027;-58
2022/05/10 10:33:06;;;;;;;2.80;2.60;;;28.80;56.10;;;;;;5085522;28;20067;-59
2022/05/10 10:35:53;;;;;;;3.22;2.85;;;28.60;54.60;;;;;;5089917;28;20031;-59
2022/05/10 10:38:36;;;;;;;3.17;2.88;;;28.60;57.00;;;;;;5088397;28;20758;-59
2022/05/10 10:41:05;;;;;;;3.20;2.90;;;28.40;54.80;;;;;;5088493;28;20065;-58
2022/05/10 10:43:46;;;;;;;4.18;2.33;;;28.50;56.60;;;;;;5089172;28;20043;-58
2022/05/10 10:46:15;;;;;;;4.47;2.60;;;29.00;54.20;;;;;;5092065;28;20032;-58
2022/05/10 10:48:47;;;;;;;3.03;2.20;;;29.30;53.10;;;;;;5091437;28;20444;-58
2022/05/10 10:51:15;;;;;;;2.88;2.63;;;29.20;55.60;;;;;;5092924;28;20021;-58
2022/05/10 10:53:44;;;;;;;4.15;2.40;;;29.40;56.90;;;;;;5091959;28;20024;-58
2022/05/10 10:56:31;;;;;;;4.60;2.15;;;29.40;54.00;;;;;;5090399;28;20119;-58
2022/05/10 10:59:34;;;;;;;2.13;1.92;;;29.10;53.00;;;;;;5089014;28;20090;-58
2022/05/10 11:02:30;;;;;;;1.77;1.67;;;29.10;51.40;;;;;;5047061;28;20081;-58
2022/05/10 11:05:17;;;;;;;2.25;2.00;;;29.40;50.80;;;;;;5092831;28;20039;-59
2022/05/10 11:08:08;;;;;;;1.70;1.60;;;30.20;52.70;;;;;;5075960;28;20405;-58
2022/05/10 11:10:48;;;;;;;1.73;1.63;;;30.70;50.20;;;;;;5094443;28;20382;-58
2022/05/10 11:13:42;;;;;;;1.75;1.65;;;31.30;49.20;;;;;;5094899;28;20024;-58
2022/05/10 11:16:26;;;;;;;1.55;1.45;;;31.40;47.70;;;;;;5095315;28;20028;-58
2022/05/10 11:19:10;;;;;;;1.60;1.50;;;31.60;49.80;;;;;;5080111;28;20017;-59
2022/05/10 11:22:02;;;;;;;1.40;1.27;;;31.50;47.40;;;;;;5085421;28;20021;-58
2022/05/10 11:24:43;;;;;;;1.67;1.30;;;31.20;47.20;;;;;;5092893;28;20054;-58
2022/05/10 11:27:21;;;;;;;2.10;1.58;;;31.40;45.50;;;;;;5089640;28;20114;-60
2022/05/10 11:29:55;;;;;;;1.30;1.20;;;31.70;47.50;;;;;;5091133;28;20042;-57
2022/05/10 11:32:52;;;;;;;1.77;1.67;;;31.60;45.10;;;;;;5090910;28;20028;-59
2022/05/10 11:35:56;;;;;;;2.85;1.70;;;31.80;48.10;;;;;;5084331;28;20036;-60
2022/05/10 11:38:35;;;;;;;1.40;1.30;;;31.80;43.40;;;;;;5091347;28;20040;-59
2022/05/10 11:41:39;;;;;;;1.50;1.40;;;31.50;42.30;;;;;;5091726;28;20038;-60
2022/05/10 11:44:08;;;;;;;1.95;1.48;;;31.90;46.60;;;;;;5009735;28;20040;-59
2022/05/10 11:46:52;;;;;;;2.85;1.70;;;32.10;42.20;;;;;;5011520;28;20089;-59
2022/05/10 11:49:43;;;;;;;1.70;1.55;;;31.80;41.40;;;;;;5049928;28;20113;-59
2022/05/10 11:52:12;;;;;;;1.98;1.65;;;31.80;45.80;;;;;;5077847;28;20560;-59
2022/05/10 11:55:04;;;;;;;7.10;2.00;;;32.00;39.20;;;;;;5088096;28;20032;-59
2022/05/10 11:57:33;;;;;;;1.60;1.50;;;31.90;42.20;;;;;;5087780;28;20138;-59
2022/05/10 12:00:26;;;;;;;2.78;1.70;;;31.60;42.60;;;;;;5080145;28;20032;-59
2022/05/10 12:02:53;;;;;;;1.60;1.50;;;31.20;44.30;;;;;;5089831;28;20381;-59
2022/05/10 12:05:24;;;;;;;1.20;1.20;;;31.40;45.20;;;;;;5090318;28;20024;-59
2022/05/10 12:08:01;;;;;;;2.20;1.30;;;31.10;43.20;;;;;;5085564;28;20054;-59
2022/05/10 12:10:42;;;;;;;1.65;1.48;;;30.70;43.80;;;;;;5085482;28;20056;-59
2022/05/10 12:22:18;;;;;;;2.97;1.60;;;31.00;42.70;;;;;;5078133;28;20039;-58
2022/05/10 12:24:46;;;;;;;1.50;1.40;;;31.10;42.40;;;;;;5077445;28;20106;-58
2022/05/10 12:27:12;;;;;;;2.63;1.60;;;31.50;41.50;;;;;;5073131;28;20136;-58
2022/05/10 12:29:37;;;;;;;1.52;1.42;;;31.70;41.10;;;;;;5077222;28;20027;-58
2022/05/10 12:32:05;;;;;;;1.40;1.30;;;31.60;43.20;;;;;;5085106;28;20024;-58
2022/05/10 12:34:56;;;;;;;1.90;1.20;;;31.60;42.50;;;;;;5082850;28;20028;-55
2022/05/10 12:37:37;;;;;;;1.40;1.30;;;31.40;40.60;;;;;;5077158;28;20032;-59
2022/05/10 12:40:08;;;;;;;2.03;1.83;;;31.40;43.70;;;;;;5082950;28;20470;-57
2022/05/10 12:42:58;;;;;;;4.50;2.47;;;31.00;41.30;;;;;;5081055;28;20032;-58
2022/05/10 12:45:56;;;;;;;2.53;2.28;;;30.40;43.70;;;;;;5086166;28;20028;-59
2022/05/10 12:48:53;;;;;;;4.03;2.20;;;29.60;45.10;;;;;;5081109;28;20081;-58
2022/05/10 12:51:37;;;;;;;3.70;2.20;;;29.50;45.70;;;;;;5085894;28;20039;-55
2022/05/10 12:54:14;;;;;;;1.98;1.80;;;29.30;45.80;;;;;;5087864;28;20067;-57
2022/05/10 12:56:44;;;;;;;3.72;1.90;;;29.20;47.80;;;;;;5087533;28;20114;-56
2022/05/10 12:59:20;;;;;;;2.67;1.73;;;29.10;47.50;;;;;;5084116;28;20036;-57
2022/05/10 13:01:47;;;;;;;1.55;1.45;;;29.00;44.80;;;;;;5086038;28;20024;-56
2022/05/10 13:04:20;;;;;;;2.60;1.90;;;29.00;45.50;;;;;;5086023;28;20133;-57
2022/05/10 13:07:08;;;;;;;2.35;1.83;;;29.00;47.10;;;;;;5082403;28;20390;-57
2022/05/10 13:09:38;;;;;;;2.58;1.70;;;28.80;44.90;;;;;;5065633;28;20104;-55
2022/05/10 13:12:18;;;;;;;2.15;1.65;;;28.50;44.20;;;;;;5084297;28;20061;-53
2022/05/10 13:14:50;;;;;;;1.60;1.50;;;28.20;45.00;;;;;;5084859;28;20111;-57
2022/05/10 13:17:33;;;;;;;2.30;1.73;;;27.80;46.50;;;;;;5079019;28;20387;-57
2022/05/10 13:20:06;;;;;;;3.65;2.40;;;27.80;45.70;;;;;;5079256;28;20028;-58
2022/05/10 13:22:32;;;;;;;5.80;2.70;;;27.60;46.30;;;;;;5081047;28;20093;-57
2022/05/10 13:25:00;;;;;;;4.70;2.45;;;27.30;48.20;;;;;;5075660;28;21521;-58
2022/05/10 13:27:37;;;;;;;3.60;2.53;;;27.00;49.60;;;;;;5082104;28;20032;-57